Airport ID:KO69
Update Time (UTC):01/12/2022 21:29
Wind Speed (Knots):6
Wind Direction (Magnetic):290
Temperature (°C):10
Dew Point (°C):6
Humidity (%):76
Altimeter (inHg):29.88
Density Altitude (Feet):
Visibility:10+
Clouds (Hundreds of feet):FEW026 SCT032
Present Weather:
METAR:METAR KO69 012125Z AUTO 28008KT 10SM FEW026 SCT032 10/06 A2987 RMK A01

The data displayed is for advisory purposes only and is not to be used for flight planning or operations.